sensor_id;sensor_type;location;lat;lon;timestamp;temperature;humidity
20795;DHT22;28087;-33.874;151.240;2022-10-16T00:01:26;20.70;99.90
20795;DHT22;28087;-33.874;151.240;2022-10-16T00:04:04;23.10;99.90
20795;DHT22;28087;-33.874;151.240;2022-10-16T00:06:39;23.30;99.90
20795;DHT22;28087;-33.874;151.240;2022-10-16T00:09:14;23.30;99.90
20795;DHT22;28087;-33.874;151.240;2022-10-16T00:11:50;23.40;99.90
20795;DHT22;28087;-33.874;151.240;2022-10-16T00:14:26;23.40;99.90
20795;DHT22;28087;-33.874;151.240;2022-10-16T00:17:02;23.40;99.90
20795;DHT22;28087;-33.874;151.240;2022-10-16T00:19:39;23.50;99.90
20795;DHT22;28087;-33.874;151.240;2022-10-16T00:22:35;23.50;99.90
20795;DHT22;28087;-33.874;151.240;2022-10-16T00:25:10;23.50;99.90
20795;DHT22;28087;-33.874;151.240;2022-10-16T00:27:45;23.60;99.90
20795;DHT22;28087;-33.874;151.240;2022-10-16T00:30:20;23.70;99.90
20795;DHT22;28087;-33.874;151.240;2022-10-16T00:32:56;23.60;99.90
20795;DHT22;28087;-33.874;151.240;2022-10-16T00:35:33;23.50;99.90
20795;DHT22;28087;-33.874;151.240;2022-10-16T00:38:08;23.30;99.90
20795;DHT22;28087;-33.874;151.240;2022-10-16T00:40:43;23.30;99.90
20795;DHT22;28087;-33.874;151.240;2022-10-16T00:43:36;23.40;99.90
20795;DHT22;28087;-33.874;151.240;2022-10-16T00:46:17;23.50;99.90
20795;DHT22;28087;-33.874;151.240;2022-10-16T00:48:57;23.40;99.90
20795;DHT22;28087;-33.874;151.240;2022-10-16T00:51:40;23.50;99.90
20795;DHT22;28087;-33.874;151.240;2022-10-16T00:54:17;23.90;99.90
20795;DHT22;28087;-33.874;151.240;2022-10-16T00:56:55;23.60;99.90
20795;DHT22;28087;-33.874;151.240;2022-10-16T01:02:10;23.60;99.90
20795;DHT22;28087;-33.874;151.240;2022-10-16T01:04:48;23.50;99.90
20795;DHT22;28087;-33.874;151.240;2022-10-16T01:07:36;23.40;99.90
20795;DHT22;28087;-33.874;151.240;2022-10-16T01:10:21;23.50;99.90
20795;DHT22;28087;-33.874;151.240;2022-10-16T01:13:04;23.60;99.90
20795;DHT22;28087;-33.874;151.240;2022-10-16T01:15:44;23.50;99.90
20795;DHT22;28087;-33.874;151.240;2022-10-16T01:18:26;23.30;99.90
20795;DHT22;28087;-33.874;151.240;2022-10-16T01:21:06;23.30;99.90
20795;DHT22;28087;-33.874;151.240;2022-10-16T01:23:51;23.30;99.90
20795;DHT22;28087;-33.874;151.240;2022-10-16T01:26:40;23.40;99.90
20795;DHT22;28087;-33.874;151.240;2022-10-16T01:29:23;23.30;99.90
20795;DHT22;28087;-33.874;151.240;2022-10-16T02:24:49;23.70;99.90
20795;DHT22;28087;-33.874;151.240;2022-10-16T03:03:51;23.70;99.90
20795;DHT22;28087;-33.874;151.240;2022-10-16T03:06:26;23.60;99.90
20795;DHT22;28087;-33.874;151.240;2022-10-16T03:09:01;23.60;99.90
20795;DHT22;28087;-33.874;151.240;2022-10-16T03:11:37;23.60;99.90
20795;DHT22;28087;-33.874;151.240;2022-10-16T03:14:12;23.30;99.90
20795;DHT22;28087;-33.874;151.240;2022-10-16T03:16:48;23.20;99.90
20795;DHT22;28087;-33.874;151.240;2022-10-16T03:19:25;23.20;99.90
20795;DHT22;28087;-33.874;151.240;2022-10-16T03:22:00;23.20;99.90
20795;DHT22;28087;-33.874;151.240;2022-10-16T03:24:37;23.30;99.90
20795;DHT22;28087;-33.874;151.240;2022-10-16T03:27:12;23.40;99.90
20795;DHT22;28087;-33.874;151.240;2022-10-16T03:29:48;23.30;99.90
20795;DHT22;28087;-33.874;151.240;2022-10-16T03:32:23;23.20;99.90
20795;DHT22;28087;-33.874;151.240;2022-10-16T03:35:02;23.10;99.90
20795;DHT22;28087;-33.874;151.240;2022-10-16T03:37:38;23.30;99.90
20795;DHT22;28087;-33.874;151.240;2022-10-16T03:40:13;23.20;99.90
20795;DHT22;28087;-33.874;151.240;2022-10-16T03:42:49;23.30;99.90
20795;DHT22;28087;-33.874;151.240;2022-10-16T03:45:25;23.10;99.90
20795;DHT22;28087;-33.874;151.240;2022-10-16T03:48:00;23.10;99.90
20795;DHT22;28087;-33.874;151.240;2022-10-16T03:50:37;23.10;99.90
20795;DHT22;28087;-33.874;151.240;2022-10-16T03:53:12;23.20;99.90
20795;DHT22;28087;-33.874;151.240;2022-10-16T03:55:48;23.30;99.90
20795;DHT22;28087;-33.874;151.240;2022-10-16T03:58:25;23.30;99.90
20795;DHT22;28087;-33.874;151.240;2022-10-16T04:01:00;23.30;99.90
20795;DHT22;28087;-33.874;151.240;2022-10-16T04:03:36;23.40;99.90
20795;DHT22;28087;-33.874;151.240;2022-10-16T04:06:13;23.30;99.90
20795;DHT22;28087;-33.874;151.240;2022-10-16T04:08:48;23.30;99.90
20795;DHT22;28087;-33.874;151.240;2022-10-16T04:11:24;23.30;99.90
20795;DHT22;28087;-33.874;151.240;2022-10-16T04:13:59;23.10;99.90
20795;DHT22;28087;-33.874;151.240;2022-10-16T04:16:35;22.90;99.90
20795;DHT22;28087;-33.874;151.240;2022-10-16T04:19:11;22.60;99.90
20795;DHT22;28087;-33.874;151.240;2022-10-16T04:21:48;22.70;99.90
20795;DHT22;28087;-33.874;151.240;2022-10-16T04:24:23;22.70;99.90
20795;DHT22;28087;-33.874;151.240;2022-10-16T04:34:46;22.90;99.90
20795;DHT22;28087;-33.874;151.240;2022-10-16T04:37:24;22.70;99.90
20795;DHT22;28087;-33.874;151.240;2022-10-16T04:40:00;22.50;99.90
20795;DHT22;28087;-33.874;151.240;2022-10-16T05:21:58;21.90;99.90
20795;DHT22;28087;-33.874;151.240;2022-10-16T05:42:55;21.10;99.90
20795;DHT22;28087;-33.874;151.240;2022-10-16T06:03:42;21.50;99.90
20795;DHT22;28087;-33.874;151.240;2022-10-16T06:06:19;21.50;99.90
20795;DHT22;28087;-33.874;151.240;2022-10-16T06:11:34;21.40;99.90
20795;DHT22;28087;-33.874;151.240;2022-10-16T06:40:02;21.10;99.90
20795;DHT22;28087;-33.874;151.240;2022-10-16T07:37:09;20.80;99.90
20795;DHT22;28087;-33.874;151.240;2022-10-16T07:39:46;20.90;99.90
20795;DHT22;28087;-33.874;151.240;2022-10-16T08:13:43;20.60;99.90
20795;DHT22;28087;-33.874;151.240;2022-10-16T08:16:21;20.70;99.90
20795;DHT22;28087;-33.874;151.240;2022-10-16T08:18:56;20.60;99.90
20795;DHT22;28087;-33.874;151.240;2022-10-16T08:37:13;20.50;99.90
20795;DHT22;28087;-33.874;151.240;2022-10-16T08:58:36;20.30;99.90
20795;DHT22;28087;-33.874;151.240;2022-10-16T09:01:14;20.20;99.90
20795;DHT22;28087;-33.874;151.240;2022-10-16T09:04:06;20.10;99.90
20795;DHT22;28087;-33.874;151.240;2022-10-16T09:06:50;20.10;99.90
20795;DHT22;28087;-33.874;151.240;2022-10-16T09:09:38;20.10;99.90
20795;DHT22;28087;-33.874;151.240;2022-10-16T09:12:23;20.10;99.90
20795;DHT22;28087;-33.874;151.240;2022-10-16T13:14:58;19.30;99.90
20795;DHT22;28087;-33.874;151.240;2022-10-16T13:17:42;19.40;99.90
20795;DHT22;28087;-33.874;151.240;2022-10-16T13:20:24;19.20;99.90
20795;DHT22;28087;-33.874;151.240;2022-10-16T13:23:13;19.10;99.90
20795;DHT22;28087;-33.874;151.240;2022-10-16T13:26:00;19.10;99.90
20795;DHT22;28087;-33.874;151.240;2022-10-16T13:28:39;19.10;99.90
20795;DHT22;28087;-33.874;151.240;2022-10-16T13:31:18;19.10;99.90
20795;DHT22;28087;-33.874;151.240;2022-10-16T13:33:56;19.00;99.90
20795;DHT22;28087;-33.874;151.240;2022-10-16T13:36:43;19.10;99.90
20795;DHT22;28087;-33.874;151.240;2022-10-16T13:39:24;19.00;99.90
20795;DHT22;28087;-33.874;151.240;2022-10-16T13:42:03;19.00;99.90
20795;DHT22;28087;-33.874;151.240;2022-10-16T13:44:42;19.00;99.90
20795;DHT22;28087;-33.874;151.240;2022-10-16T13:47:19;19.00;99.90
20795;DHT22;28087;-33.874;151.240;2022-10-16T13:50:02;18.90;99.90
20795;DHT22;28087;-33.874;151.240;2022-10-16T13:52:38;18.90;99.90
20795;DHT22;28087;-33.874;151.240;2022-10-16T13:55:16;18.90;99.90
20795;DHT22;28087;-33.874;151.240;2022-10-16T13:57:52;18.90;99.90
20795;DHT22;28087;-33.874;151.240;2022-10-16T14:00:29;19.00;99.90
20795;DHT22;28087;-33.874;151.240;2022-10-16T14:03:11;18.90;99.90
20795;DHT22;28087;-33.874;151.240;2022-10-16T14:05:48;19.00;99.90
20795;DHT22;28087;-33.874;151.240;2022-10-16T14:08:26;18.90;99.90
20795;DHT22;28087;-33.874;151.240;2022-10-16T14:11:03;19.00;99.90
20795;DHT22;28087;-33.874;151.240;2022-10-16T14:13:57;19.00;99.90
20795;DHT22;28087;-33.874;151.240;2022-10-16T14:16:33;19.00;99.90
20795;DHT22;28087;-33.874;151.240;2022-10-16T14:19:18;19.00;99.90
20795;DHT22;28087;-33.874;151.240;2022-10-16T14:24:33;18.90;99.90
20795;DHT22;28087;-33.874;151.240;2022-10-16T14:27:29;19.00;99.90
20795;DHT22;28087;-33.874;151.240;2022-10-16T16:09:42;18.50;99.90
20795;DHT22;28087;-33.874;151.240;2022-10-16T16:12:17;18.50;99.90
20795;DHT22;28087;-33.874;151.240;2022-10-16T16:14:53;18.30;99.90
20795;DHT22;28087;-33.874;151.240;2022-10-16T16:17:37;18.20;99.90
20795;DHT22;28087;-33.874;151.240;2022-10-16T16:20:12;18.20;99.90
20795;DHT22;28087;-33.874;151.240;2022-10-16T16:22:47;18.20;99.90
20795;DHT22;28087;-33.874;151.240;2022-10-16T16:25:22;18.10;99.90
20795;DHT22;28087;-33.874;151.240;2022-10-16T16:27:58;18.10;99.90
20795;DHT22;28087;-33.874;151.240;2022-10-16T16:30:33;18.10;99.90
20795;DHT22;28087;-33.874;151.240;2022-10-16T16:33:11;18.10;99.90
20795;DHT22;28087;-33.874;151.240;2022-10-16T16:35:46;18.00;99.90
20795;DHT22;28087;-33.874;151.240;2022-10-16T16:38:21;18.10;99.90
20795;DHT22;28087;-33.874;151.240;2022-10-16T16:40:57;18.00;99.90
20795;DHT22;28087;-33.874;151.240;2022-10-16T16:43:32;18.00;99.90
20795;DHT22;28087;-33.874;151.240;2022-10-16T16:46:07;18.00;99.90
20795;DHT22;28087;-33.874;151.240;2022-10-16T16:48:45;18.00;99.90
20795;DHT22;28087;-33.874;151.240;2022-10-16T16:51:22;18.00;99.90
20795;DHT22;28087;-33.874;151.240;2022-10-16T16:53:57;18.00;99.90
20795;DHT22;28087;-33.874;151.240;2022-10-16T16:56:32;18.00;99.90
20795;DHT22;28087;-33.874;151.240;2022-10-16T16:59:13;18.00;99.90
20795;DHT22;28087;-33.874;151.240;2022-10-16T17:01:50;17.90;99.90
20795;DHT22;28087;-33.874;151.240;2022-10-16T17:04:29;17.90;99.90
20795;DHT22;28087;-33.874;151.240;2022-10-16T17:07:04;17.90;99.90
20795;DHT22;28087;-33.874;151.240;2022-10-16T17:09:39;17.90;99.90
20795;DHT22;28087;-33.874;151.240;2022-10-16T17:12:14;17.90;99.90
20795;DHT22;28087;-33.874;151.240;2022-10-16T17:14:51;18.00;99.90
20795;DHT22;28087;-33.874;151.240;2022-10-16T17:17:27;17.90;99.90
20795;DHT22;28087;-33.874;151.240;2022-10-16T17:20:05;17.90;99.90
20795;DHT22;28087;-33.874;151.240;2022-10-16T17:22:41;17.90;99.90
20795;DHT22;28087;-33.874;151.240;2022-10-16T17:25:16;18.00;99.90
20795;DHT22;28087;-33.874;151.240;2022-10-16T17:27:55;18.00;99.90
20795;DHT22;28087;-33.874;151.240;2022-10-16T17:30:30;18.00;99.90
20795;DHT22;28087;-33.874;151.240;2022-10-16T17:33:07;17.90;99.90
20795;DHT22;28087;-33.874;151.240;2022-10-16T17:35:47;18.00;99.90
20795;DHT22;28087;-33.874;151.240;2022-10-16T17:38:22;17.90;99.90
20795;DHT22;28087;-33.874;151.240;2022-10-16T17:40:57;18.00;99.90
20795;DHT22;28087;-33.874;151.240;2022-10-16T17:43:33;18.10;99.90
20795;DHT22;28087;-33.874;151.240;2022-10-16T17:46:09;18.10;99.90
20795;DHT22;28087;-33.874;151.240;2022-10-16T17:48:46;18.10;99.90
20795;DHT22;28087;-33.874;151.240;2022-10-16T17:51:25;18.20;99.90
20795;DHT22;28087;-33.874;151.240;2022-10-16T17:54:01;18.20;99.90
20795;DHT22;28087;-33.874;151.240;2022-10-16T17:56:36;18.20;99.90
20795;DHT22;28087;-33.874;151.240;2022-10-16T17:59:15;18.20;99.90
20795;DHT22;28087;-33.874;151.240;2022-10-16T18:01:53;18.20;99.90
20795;DHT22;28087;-33.874;151.240;2022-10-16T18:04:29;18.20;99.90
20795;DHT22;28087;-33.874;151.240;2022-10-16T18:07:06;18.20;99.90
20795;DHT22;28087;-33.874;151.240;2022-10-16T18:09:42;18.30;99.90
20795;DHT22;28087;-33.874;151.240;2022-10-16T18:12:37;18.30;99.90
20795;DHT22;28087;-33.874;151.240;2022-10-16T18:15:16;18.20;99.90
20795;DHT22;28087;-33.874;151.240;2022-10-16T18:17:52;18.30;99.90
20795;DHT22;28087;-33.874;151.240;2022-10-16T18:20:27;18.30;99.90
20795;DHT22;28087;-33.874;151.240;2022-10-16T18:23:04;18.30;99.90
20795;DHT22;28087;-33.874;151.240;2022-10-16T18:25:40;18.30;99.90
20795;DHT22;28087;-33.874;151.240;2022-10-16T18:28:23;18.20;99.90
20795;DHT22;28087;-33.874;151.240;2022-10-16T18:30:59;18.30;99.90
20795;DHT22;28087;-33.874;151.240;2022-10-16T18:33:37;18.30;99.90
20795;DHT22;28087;-33.874;151.240;2022-10-16T18:36:20;18.20;99.90
20795;DHT22;28087;-33.874;151.240;2022-10-16T18:38:58;18.20;99.90
20795;DHT22;28087;-33.874;151.240;2022-10-16T18:41:34;18.30;99.90
20795;DHT22;28087;-33.874;151.240;2022-10-16T18:44:10;18.30;99.90
20795;DHT22;28087;-33.874;151.240;2022-10-16T18:46:45;18.30;99.90
20795;DHT22;28087;-33.874;151.240;2022-10-16T18:51:56;18.30;99.90
20795;DHT22;28087;-33.874;151.240;2022-10-16T18:54:36;18.30;99.90
20795;DHT22;28087;-33.874;151.240;2022-10-16T18:57:12;18.20;99.90
20795;DHT22;28087;-33.874;151.240;2022-10-16T18:59:49;18.30;99.90
20795;DHT22;28087;-33.874;151.240;2022-10-16T19:02:24;18.30;99.90
20795;DHT22;28087;-33.874;151.240;2022-10-16T19:05:00;18.30;99.90
20795;DHT22;28087;-33.874;151.240;2022-10-16T19:07:36;18.30;99.90
20795;DHT22;28087;-33.874;151.240;2022-10-16T19:10:13;18.30;99.90
20795;DHT22;28087;-33.874;151.240;2022-10-16T19:15:28;18.20;99.90
20795;DHT22;28087;-33.874;151.240;2022-10-16T19:47:05;18.00;99.90
20795;DHT22;28087;-33.874;151.240;2022-10-16T19:49:41;18.10;99.90
20795;DHT22;28087;-33.874;151.240;2022-10-16T19:52:16;17.80;99.90
20795;DHT22;28087;-33.874;151.240;2022-10-16T19:54:55;17.90;99.90
20795;DHT22;28087;-33.874;151.240;2022-10-16T19:57:33;17.80;99.90
20795;DHT22;28087;-33.874;151.240;2022-10-16T20:00:09;17.80;99.90
20795;DHT22;28087;-33.874;151.240;2022-10-16T20:02:44;17.70;99.90
20795;DHT22;28087;-33.874;151.240;2022-10-16T20:05:19;17.70;99.90
20795;DHT22;28087;-33.874;151.240;2022-10-16T20:07:55;17.70;99.90
20795;DHT22;28087;-33.874;151.240;2022-10-16T20:59:56;17.20;99.90
20795;DHT22;28087;-33.874;151.240;2022-10-16T21:02:31;17.10;99.90
20795;DHT22;28087;-33.874;151.240;2022-10-16T21:05:07;16.80;99.90
20795;DHT22;28087;-33.874;151.240;2022-10-16T21:07:43;16.80;99.90
20795;DHT22;28087;-33.874;151.240;2022-10-16T21:10:18;16.70;99.90
20795;DHT22;28087;-33.874;151.240;2022-10-16T21:12:54;16.70;99.90
20795;DHT22;28087;-33.874;151.240;2022-10-16T21:15:31;16.60;99.90
20795;DHT22;28087;-33.874;151.240;2022-10-16T21:18:07;16.60;99.90
20795;DHT22;28087;-33.874;151.240;2022-10-16T21:20:43;16.60;99.90
20795;DHT22;28087;-33.874;151.240;2022-10-16T21:23:22;16.60;99.90
20795;DHT22;28087;-33.874;151.240;2022-10-16T21:25:58;16.50;99.90
20795;DHT22;28087;-33.874;151.240;2022-10-16T21:28:34;16.60;99.90
20795;DHT22;28087;-33.874;151.240;2022-10-16T21:31:17;16.50;99.90
20795;DHT22;28087;-33.874;151.240;2022-10-16T21:33:54;16.60;99.90
20795;DHT22;28087;-33.874;151.240;2022-10-16T21:36:31;16.60;99.90
20795;DHT22;28087;-33.874;151.240;2022-10-16T21:39:08;16.70;99.90
20795;DHT22;28087;-33.874;151.240;2022-10-16T21:41:45;16.70;99.90
20795;DHT22;28087;-33.874;151.240;2022-10-16T21:44:20;16.80;99.90
20795;DHT22;28087;-33.874;151.240;2022-10-16T21:46:58;16.80;99.90
20795;DHT22;28087;-33.874;151.240;2022-10-16T21:49:33;16.80;99.90
20795;DHT22;28087;-33.874;151.240;2022-10-16T21:52:08;16.80;99.90
20795;DHT22;28087;-33.874;151.240;2022-10-16T21:54:45;16.80;99.90
20795;DHT22;28087;-33.874;151.240;2022-10-16T21:57:20;16.80;99.90
20795;DHT22;28087;-33.874;151.240;2022-10-16T21:59:56;16.80;99.90
20795;DHT22;28087;-33.874;151.240;2022-10-16T22:02:38;16.90;99.90
20795;DHT22;28087;-33.874;151.240;2022-10-16T22:05:13;16.80;99.90
20795;DHT22;28087;-33.874;151.240;2022-10-16T22:07:48;16.90;99.90
20795;DHT22;28087;-33.874;151.240;2022-10-16T22:10:24;16.80;99.90
20795;DHT22;28087;-33.874;151.240;2022-10-16T22:12:59;16.80;99.90
20795;DHT22;28087;-33.874;151.240;2022-10-16T22:15:34;16.80;99.90
20795;DHT22;28087;-33.874;151.240;2022-10-16T22:18:11;16.70;99.90
20795;DHT22;28087;-33.874;151.240;2022-10-16T22:20:47;16.80;99.90
20795;DHT22;28087;-33.874;151.240;2022-10-16T22:23:22;16.80;99.90
20795;DHT22;28087;-33.874;151.240;2022-10-16T22:26:00;16.80;99.90
20795;DHT22;28087;-33.874;151.240;2022-10-16T22:28:40;16.80;99.90
20795;DHT22;28087;-33.874;151.240;2022-10-16T22:31:16;16.80;99.90
20795;DHT22;28087;-33.874;151.240;2022-10-16T22:33:58;16.80;99.90
20795;DHT22;28087;-33.874;151.240;2022-10-16T22:36:34;16.80;99.90
20795;DHT22;28087;-33.874;151.240;2022-10-16T22:39:09;16.80;99.90
20795;DHT22;28087;-33.874;151.240;2022-10-16T22:41:44;16.80;99.90
20795;DHT22;28087;-33.874;151.240;2022-10-16T22:44:19;16.80;99.90
20795;DHT22;28087;-33.874;151.240;2022-10-16T22:46:54;16.80;99.90
20795;DHT22;28087;-33.874;151.240;2022-10-16T22:49:31;16.80;99.90
20795;DHT22;28087;-33.874;151.240;2022-10-16T22:52:06;16.80;99.90
20795;DHT22;28087;-33.874;151.240;2022-10-16T22:54:42;16.90;99.90
20795;DHT22;28087;-33.874;151.240;2022-10-16T22:57:18;16.90;99.90
20795;DHT22;28087;-33.874;151.240;2022-10-16T22:59:53;16.90;99.90
20795;DHT22;28087;-33.874;151.240;2022-10-16T23:02:28;16.90;99.90
20795;DHT22;28087;-33.874;151.240;2022-10-16T23:05:06;16.90;99.90
20795;DHT22;28087;-33.874;151.240;2022-10-16T23:07:43;16.90;99.90
20795;DHT22;28087;-33.874;151.240;2022-10-16T23:10:21;16.90;99.90
20795;DHT22;28087;-33.874;151.240;2022-10-16T23:13:00;17.00;99.90
20795;DHT22;28087;-33.874;151.240;2022-10-16T23:15:38;17.10;99.90
20795;DHT22;28087;-33.874;151.240;2022-10-16T23:18:13;17.10;99.90
20795;DHT22;28087;-33.874;151.240;2022-10-16T23:20:50;17.10;99.90
20795;DHT22;28087;-33.874;151.240;2022-10-16T23:23:25;17.20;99.90
20795;DHT22;28087;-33.874;151.240;2022-10-16T23:26:00;17.30;99.90
20795;DHT22;28087;-33.874;151.240;2022-10-16T23:28:36;17.40;99.90
20795;DHT22;28087;-33.874;151.240;2022-10-16T23:31:15;17.40;99.90
20795;DHT22;28087;-33.874;151.240;2022-10-16T23:33:50;17.50;99.90
20795;DHT22;28087;-33.874;151.240;2022-10-16T23:36:29;17.60;99.90
20795;DHT22;28087;-33.874;151.240;2022-10-16T23:39:04;17.80;99.90
20795;DHT22;28087;-33.874;151.240;2022-10-16T23:41:39;17.80;99.90
20795;DHT22;28087;-33.874;151.240;2022-10-16T23:44:14;17.90;99.90
20795;DHT22;28087;-33.874;151.240;2022-10-16T23:46:52;17.90;99.90
20795;DHT22;28087;-33.874;151.240;2022-10-16T23:49:28;17.90;99.90
20795;DHT22;28087;-33.874;151.240;2022-10-16T23:52:06;18.00;99.90
20795;DHT22;28087;-33.874;151.240;2022-10-16T23:54:42;18.10;99.90
20795;DHT22;28087;-33.874;151.240;2022-10-16T23:57:17;18.10;99.90
20795;DHT22;28087;-33.874;151.240;2022-10-16T23:59:52;18.10;99.90
